sensor_id;sensor_type;location;lat;lon;timestamp;pressure;altitude;pressure_sealevel;temperature;humidity
54248;BME280;40161;39.768;2.722;2023-04-07T00:02:04;101612.22;;;10.76;82.33
54248;BME280;40161;39.768;2.722;2023-04-07T00:04:30;101584.81;;;10.64;82.94
54248;BME280;40161;39.768;2.722;2023-04-07T00:06:55;101603.72;;;10.93;83.04
54248;BME280;40161;39.768;2.722;2023-04-07T00:09:21;101610.75;;;10.91;81.82
54248;BME280;40161;39.768;2.722;2023-04-07T00:11:46;101604.22;;;10.83;82.30
54248;BME280;40161;39.768;2.722;2023-04-07T00:14:13;101597.59;;;10.72;82.92
54248;BME280;40161;39.768;2.722;2023-04-07T00:16:38;101595.19;;;10.83;82.62
54248;BME280;40161;39.768;2.722;2023-04-07T00:19:04;101594.16;;;10.75;82.23
54248;BME280;40161;39.768;2.722;2023-04-07T00:21:30;101585.16;;;10.62;83.20
54248;BME280;40161;39.768;2.722;2023-04-07T00:23:55;101590.88;;;10.57;84.16
54248;BME280;40161;39.768;2.722;2023-04-07T00:26:21;101605.63;;;10.53;83.56
54248;BME280;40161;39.768;2.722;2023-04-07T00:28:47;101596.84;;;10.47;85.47
54248;BME280;40161;39.768;2.722;2023-04-07T00:31:13;101596.63;;;10.40;85.19
54248;BME280;40161;39.768;2.722;2023-04-07T00:33:38;101584.50;;;10.41;85.40
54248;BME280;40161;39.768;2.722;2023-04-07T00:36:04;101589.63;;;10.42;84.12
54248;BME280;40161;39.768;2.722;2023-04-07T00:38:30;101584.13;;;10.42;83.58
54248;BME280;40161;39.768;2.722;2023-04-07T00:40:59;101581.28;;;10.39;84.39
54248;BME280;40161;39.768;2.722;2023-04-07T00:43:25;101578.88;;;10.37;83.25
54248;BME280;40161;39.768;2.722;2023-04-07T00:45:51;101571.22;;;10.43;85.06
54248;BME280;40161;39.768;2.722;2023-04-07T00:48:17;101586.94;;;10.83;82.92
54248;BME280;40161;39.768;2.722;2023-04-07T00:50:44;101594.00;;;11.08;79.29
54248;BME280;40161;39.768;2.722;2023-04-07T00:53:11;101585.63;;;10.64;80.29
54248;BME280;40161;39.768;2.722;2023-04-07T00:55:37;101595.78;;;10.52;82.78
54248;BME280;40161;39.768;2.722;2023-04-07T00:58:02;101598.78;;;10.47;82.40
54248;BME280;40161;39.768;2.722;2023-04-07T01:00:42;101571.00;;;10.36;82.58
54248;BME280;40161;39.768;2.722;2023-04-07T01:03:18;101560.56;;;10.05;81.86
54248;BME280;40161;39.768;2.722;2023-04-07T01:06:00;101583.00;;;10.31;84.01
54248;BME280;40161;39.768;2.722;2023-04-07T01:08:40;101585.06;;;10.34;83.19
54248;BME280;40161;39.768;2.722;2023-04-07T01:11:14;101582.09;;;10.27;83.30
54248;BME280;40161;39.768;2.722;2023-04-07T01:13:48;101574.41;;;10.20;83.66
54248;BME280;40161;39.768;2.722;2023-04-07T01:16:29;101581.81;;;10.20;84.02
54248;BME280;40161;39.768;2.722;2023-04-07T01:19:03;101581.94;;;9.99;84.08
54248;BME280;40161;39.768;2.722;2023-04-07T01:21:34;101573.59;;;9.95;85.55
54248;BME280;40161;39.768;2.722;2023-04-07T01:27:18;101583.09;;;10.35;84.53
54248;BME280;40161;39.768;2.722;2023-04-07T01:29:46;101577.06;;;10.29;82.58
54248;BME280;40161;39.768;2.722;2023-04-07T01:32:13;101539.19;;;9.86;84.67
54248;BME280;40161;39.768;2.722;2023-04-07T01:34:40;101574.97;;;10.14;84.85
54248;BME280;40161;39.768;2.722;2023-04-07T01:37:06;101570.88;;;10.32;84.62
54248;BME280;40161;39.768;2.722;2023-04-07T01:39:33;101568.50;;;10.83;81.69
54248;BME280;40161;39.768;2.722;2023-04-07T01:42:00;101569.38;;;10.59;79.48
54248;BME280;40161;39.768;2.722;2023-04-07T01:44:29;101569.03;;;9.99;83.18
54248;BME280;40161;39.768;2.722;2023-04-07T01:46:57;101560.66;;;9.84;85.02
54248;BME280;40161;39.768;2.722;2023-04-07T01:49:24;101540.66;;;9.83;83.92
54248;BME280;40161;39.768;2.722;2023-04-07T01:51:50;101553.56;;;9.83;85.06
54248;BME280;40161;39.768;2.722;2023-04-07T01:54:17;101554.47;;;9.74;85.58
54248;BME280;40161;39.768;2.722;2023-04-07T01:56:43;101555.31;;;10.24;83.79
54248;BME280;40161;39.768;2.722;2023-04-07T01:59:09;101559.06;;;10.56;82.26
54248;BME280;40161;39.768;2.722;2023-04-07T02:01:35;101551.13;;;10.79;80.44
54248;BME280;40161;39.768;2.722;2023-04-07T02:04:11;101555.66;;;10.47;78.96
54248;BME280;40161;39.768;2.722;2023-04-07T02:06:43;101552.53;;;9.87;82.21
54248;BME280;40161;39.768;2.722;2023-04-07T02:09:14;101553.56;;;9.83;84.38
54248;BME280;40161;39.768;2.722;2023-04-07T02:11:41;101492.75;;;9.44;84.59
54248;BME280;40161;39.768;2.722;2023-04-07T02:14:08;101535.25;;;9.62;85.18
54248;BME280;40161;39.768;2.722;2023-04-07T02:16:34;101549.31;;;9.73;86.98
54248;BME280;40161;39.768;2.722;2023-04-07T02:19:01;101522.28;;;9.96;84.41
54248;BME280;40161;39.768;2.722;2023-04-07T02:21:27;101535.56;;;10.31;82.82
54248;BME280;40161;39.768;2.722;2023-04-07T02:23:55;101508.91;;;10.31;81.68
54248;BME280;40161;39.768;2.722;2023-04-07T02:26:20;101527.75;;;10.45;80.65
54248;BME280;40161;39.768;2.722;2023-04-07T02:28:46;101540.56;;;10.04;80.18
54248;BME280;40161;39.768;2.722;2023-04-07T02:31:11;101539.53;;;9.84;83.62
54248;BME280;40161;39.768;2.722;2023-04-07T02:33:38;101530.81;;;9.70;85.44
54248;BME280;40161;39.768;2.722;2023-04-07T02:36:03;101534.22;;;9.55;83.84
54248;BME280;40161;39.768;2.722;2023-04-07T02:38:30;101539.28;;;9.65;85.26
54248;BME280;40161;39.768;2.722;2023-04-07T02:40:55;101523.03;;;9.47;85.32
54248;BME280;40161;39.768;2.722;2023-04-07T02:43:22;101533.63;;;9.49;85.60
54248;BME280;40161;39.768;2.722;2023-04-07T02:45:48;101517.53;;;9.47;86.19
54248;BME280;40161;39.768;2.722;2023-04-07T02:48:13;101529.78;;;9.50;85.06
54248;BME280;40161;39.768;2.722;2023-04-07T02:50:39;101510.84;;;9.69;86.27
54248;BME280;40161;39.768;2.722;2023-04-07T02:53:06;101521.50;;;9.95;84.62
54248;BME280;40161;39.768;2.722;2023-04-07T02:55:31;101530.88;;;10.19;82.22
54248;BME280;40161;39.768;2.722;2023-04-07T02:57:57;101517.69;;;10.25;81.19
54248;BME280;40161;39.768;2.722;2023-04-07T03:00:22;101532.44;;;10.08;79.88
54248;BME280;40161;39.768;2.722;2023-04-07T03:02:48;101514.84;;;9.72;81.88
54248;BME280;40161;39.768;2.722;2023-04-07T03:05:13;101512.50;;;9.49;83.66
54248;BME280;40161;39.768;2.722;2023-04-07T03:07:39;101509.19;;;9.44;85.08
54248;BME280;40161;39.768;2.722;2023-04-07T03:10:05;101479.38;;;9.30;84.58
54248;BME280;40161;39.768;2.722;2023-04-07T03:12:30;101529.00;;;9.74;86.01
54248;BME280;40161;39.768;2.722;2023-04-07T03:14:56;101517.56;;;9.72;83.69
54248;BME280;40161;39.768;2.722;2023-04-07T03:17:21;101520.28;;;9.60;84.08
54248;BME280;40161;39.768;2.722;2023-04-07T03:19:47;101518.34;;;9.48;84.74
54248;BME280;40161;39.768;2.722;2023-04-07T03:22:12;101507.03;;;9.49;85.60
54248;BME280;40161;39.768;2.722;2023-04-07T03:24:38;101504.78;;;9.76;83.26
54248;BME280;40161;39.768;2.722;2023-04-07T03:27:05;101516.34;;;9.82;83.00
54248;BME280;40161;39.768;2.722;2023-04-07T03:29:30;101479.69;;;9.98;81.18
54248;BME280;40161;39.768;2.722;2023-04-07T03:31:56;101509.50;;;9.88;79.10
54248;BME280;40161;39.768;2.722;2023-04-07T03:34:21;101488.56;;;9.46;81.31
54248;BME280;40161;39.768;2.722;2023-04-07T03:36:47;101481.78;;;8.98;84.70
54248;BME280;40161;39.768;2.722;2023-04-07T03:39:12;101497.44;;;9.10;86.24
54248;BME280;40161;39.768;2.722;2023-04-07T03:41:38;101486.44;;;9.19;86.98
54248;BME280;40161;39.768;2.722;2023-04-07T03:44:03;101479.69;;;9.28;85.86
54248;BME280;40161;39.768;2.722;2023-04-07T03:46:29;101496.06;;;9.49;83.34
54248;BME280;40161;39.768;2.722;2023-04-07T03:48:55;101486.31;;;9.27;84.35
54248;BME280;40161;39.768;2.722;2023-04-07T03:51:21;101478.91;;;9.28;85.35
54248;BME280;40161;39.768;2.722;2023-04-07T03:53:46;101478.38;;;9.59;85.36
54248;BME280;40161;39.768;2.722;2023-04-07T03:56:12;101493.09;;;9.42;83.13
54248;BME280;40161;39.768;2.722;2023-04-07T03:58:37;101496.38;;;9.23;85.06
54248;BME280;40161;39.768;2.722;2023-04-07T04:01:05;101449.47;;;9.37;83.43
54248;BME280;40161;39.768;2.722;2023-04-07T04:03:31;101481.16;;;9.71;82.80
54248;BME280;40161;39.768;2.722;2023-04-07T04:05:56;101464.22;;;9.69;82.01
54248;BME280;40161;39.768;2.722;2023-04-07T04:08:22;101444.84;;;9.04;82.62
54248;BME280;40161;39.768;2.722;2023-04-07T04:10:48;101463.84;;;8.89;84.67
54248;BME280;40161;39.768;2.722;2023-04-07T04:13:13;101436.56;;;8.59;85.79
54248;BME280;40161;39.768;2.722;2023-04-07T04:15:39;101442.97;;;8.63;87.91
54248;BME280;40161;39.768;2.722;2023-04-07T04:18:05;101483.94;;;8.93;88.44
54248;BME280;40161;39.768;2.722;2023-04-07T04:20:30;101472.63;;;8.94;88.15
54248;BME280;40161;39.768;2.722;2023-04-07T04:22:56;101465.88;;;9.13;87.99
54248;BME280;40161;39.768;2.722;2023-04-07T04:25:22;101481.38;;;9.54;86.08
54248;BME280;40161;39.768;2.722;2023-04-07T04:27:47;101513.25;;;9.83;83.05
54248;BME280;40161;39.768;2.722;2023-04-07T04:30:13;101505.25;;;9.78;81.11
54248;BME280;40161;39.768;2.722;2023-04-07T04:32:38;101513.00;;;9.64;82.33
54248;BME280;40161;39.768;2.722;2023-04-07T04:35:05;101511.44;;;9.30;83.01
54248;BME280;40161;39.768;2.722;2023-04-07T04:37:31;101514.09;;;9.05;82.52
54248;BME280;40161;39.768;2.722;2023-04-07T04:39:56;101519.19;;;8.73;86.55
54248;BME280;40161;39.768;2.722;2023-04-07T04:42:22;101515.13;;;8.59;87.52
54248;BME280;40161;39.768;2.722;2023-04-07T04:44:47;101504.69;;;8.73;88.11
54248;BME280;40161;39.768;2.722;2023-04-07T04:47:13;101517.97;;;8.83;87.19
54248;BME280;40161;39.768;2.722;2023-04-07T04:49:38;101497.19;;;9.03;86.19
54248;BME280;40161;39.768;2.722;2023-04-07T04:52:04;101505.31;;;9.12;85.21
54248;BME280;40161;39.768;2.722;2023-04-07T04:54:29;101515.47;;;9.44;84.86
54248;BME280;40161;39.768;2.722;2023-04-07T04:56:55;101501.09;;;9.60;82.95
54248;BME280;40161;39.768;2.722;2023-04-07T04:59:22;101508.66;;;9.17;82.78
54248;BME280;40161;39.768;2.722;2023-04-07T05:01:48;101517.31;;;8.86;85.34
54248;BME280;40161;39.768;2.722;2023-04-07T05:04:13;101516.13;;;8.96;86.50
54248;BME280;40161;39.768;2.722;2023-04-07T05:06:39;101518.94;;;9.20;85.56
54248;BME280;40161;39.768;2.722;2023-04-07T05:09:04;101498.75;;;8.92;82.88
54248;BME280;40161;39.768;2.722;2023-04-07T05:11:30;101515.50;;;8.90;85.48
54248;BME280;40161;39.768;2.722;2023-04-07T05:13:55;101487.22;;;8.65;84.87
54248;BME280;40161;39.768;2.722;2023-04-07T05:16:21;101520.47;;;8.76;85.65
54248;BME280;40161;39.768;2.722;2023-04-07T05:18:46;101512.19;;;8.64;86.11
54248;BME280;40161;39.768;2.722;2023-04-07T05:21:12;101459.22;;;8.18;87.74
54248;BME280;40161;39.768;2.722;2023-04-07T05:23:37;101522.41;;;8.54;88.84
54248;BME280;40161;39.768;2.722;2023-04-07T05:26:03;101533.81;;;8.77;88.72
54248;BME280;40161;39.768;2.722;2023-04-07T05:28:28;101520.09;;;9.19;85.87
54248;BME280;40161;39.768;2.722;2023-04-07T05:30:54;101497.16;;;9.24;83.83
54248;BME280;40161;39.768;2.722;2023-04-07T05:33:19;101485.06;;;9.25;82.71
54248;BME280;40161;39.768;2.722;2023-04-07T05:35:45;101525.22;;;9.66;81.41
54248;BME280;40161;39.768;2.722;2023-04-07T05:38:12;101518.66;;;9.34;80.38
54248;BME280;40161;39.768;2.722;2023-04-07T05:40:39;101502.31;;;9.04;84.12
54248;BME280;40161;39.768;2.722;2023-04-07T05:43:05;101525.28;;;9.33;83.11
54248;BME280;40161;39.768;2.722;2023-04-07T05:45:30;101519.53;;;9.26;81.64
54248;BME280;40161;39.768;2.722;2023-04-07T05:47:56;101520.66;;;8.92;83.18
54248;BME280;40161;39.768;2.722;2023-04-07T05:50:21;101518.19;;;8.78;85.16
54248;BME280;40161;39.768;2.722;2023-04-07T05:52:47;101517.25;;;8.74;84.37
54248;BME280;40161;39.768;2.722;2023-04-07T05:55:12;101532.41;;;8.71;85.00
54248;BME280;40161;39.768;2.722;2023-04-07T05:57:38;101508.75;;;8.88;86.18
54248;BME280;40161;39.768;2.722;2023-04-07T06:00:04;101526.94;;;8.92;83.87
54248;BME280;40161;39.768;2.722;2023-04-07T06:02:29;101522.78;;;8.65;85.27
54248;BME280;40161;39.768;2.722;2023-04-07T06:04:55;101538.47;;;8.77;86.22
54248;BME280;40161;39.768;2.722;2023-04-07T06:07:21;101516.44;;;8.73;84.69
54248;BME280;40161;39.768;2.722;2023-04-07T06:09:46;101538.59;;;8.80;84.66
54248;BME280;40161;39.768;2.722;2023-04-07T06:12:12;101534.13;;;8.76;84.99
54248;BME280;40161;39.768;2.722;2023-04-07T06:14:39;101546.69;;;8.77;85.54
54248;BME280;40161;39.768;2.722;2023-04-07T06:17:04;101548.34;;;8.69;86.14
54248;BME280;40161;39.768;2.722;2023-04-07T06:19:31;101537.88;;;8.71;87.16
54248;BME280;40161;39.768;2.722;2023-04-07T06:21:57;101536.25;;;8.70;86.39
54248;BME280;40161;39.768;2.722;2023-04-07T06:24:22;101540.25;;;9.15;85.28
54248;BME280;40161;39.768;2.722;2023-04-07T06:26:50;101523.69;;;9.11;83.92
54248;BME280;40161;39.768;2.722;2023-04-07T06:29:16;101550.06;;;9.49;82.71
54248;BME280;40161;39.768;2.722;2023-04-07T06:31:42;101545.81;;;9.39;82.23
54248;BME280;40161;39.768;2.722;2023-04-07T06:34:07;101542.88;;;9.11;82.92
54248;BME280;40161;39.768;2.722;2023-04-07T06:36:33;101544.13;;;9.14;85.48
54248;BME280;40161;39.768;2.722;2023-04-07T06:38:59;101541.41;;;9.14;84.37
54248;BME280;40161;39.768;2.722;2023-04-07T06:41:24;101526.84;;;9.01;84.03
54248;BME280;40161;39.768;2.722;2023-04-07T06:43:50;101525.19;;;8.88;86.42
54248;BME280;40161;39.768;2.722;2023-04-07T06:46:16;101546.69;;;8.98;86.75
54248;BME280;40161;39.768;2.722;2023-04-07T06:48:42;101521.13;;;8.94;87.53
54248;BME280;40161;39.768;2.722;2023-04-07T06:51:07;101523.56;;;9.08;86.79
54248;BME280;40161;39.768;2.722;2023-04-07T06:53:33;101537.50;;;9.48;85.79
54248;BME280;40161;39.768;2.722;2023-04-07T06:56:16;101547.56;;;9.56;85.30
54248;BME280;40161;39.768;2.722;2023-04-07T06:58:42;101539.03;;;9.70;84.32
54248;BME280;40161;39.768;2.722;2023-04-07T07:01:08;101538.59;;;9.80;85.26
54248;BME280;40161;39.768;2.722;2023-04-07T07:03:33;101505.03;;;9.71;84.17
54248;BME280;40161;39.768;2.722;2023-04-07T07:05:59;101541.94;;;10.10;83.82
54248;BME280;40161;39.768;2.722;2023-04-07T07:08:26;101501.72;;;9.90;83.80
54248;BME280;40161;39.768;2.722;2023-04-07T07:10:52;101542.63;;;10.19;83.39
54248;BME280;40161;39.768;2.722;2023-04-07T07:13:20;101543.78;;;10.31;83.58
54248;BME280;40161;39.768;2.722;2023-04-07T07:15:47;101522.75;;;10.22;82.44
54248;BME280;40161;39.768;2.722;2023-04-07T07:18:13;101535.66;;;10.34;82.25
54248;BME280;40161;39.768;2.722;2023-04-07T07:20:38;101521.94;;;10.34;82.27
54248;BME280;40161;39.768;2.722;2023-04-07T07:23:04;101531.63;;;10.56;82.51
54248;BME280;40161;39.768;2.722;2023-04-07T07:25:30;101518.84;;;10.60;81.75
54248;BME280;40161;39.768;2.722;2023-04-07T07:27:56;101524.63;;;10.71;81.64
54248;BME280;40161;39.768;2.722;2023-04-07T07:30:22;101517.50;;;10.82;81.22
54248;BME280;40161;39.768;2.722;2023-04-07T07:32:48;101527.88;;;11.01;81.80
54248;BME280;40161;39.768;2.722;2023-04-07T07:35:14;101528.94;;;11.12;82.16
54248;BME280;40161;39.768;2.722;2023-04-07T07:37:40;101499.56;;;11.01;81.62
54248;BME280;40161;39.768;2.722;2023-04-07T07:40:07;101541.31;;;11.34;79.75
54248;BME280;40161;39.768;2.722;2023-04-07T07:42:33;101539.13;;;11.40;77.78
54248;BME280;40161;39.768;2.722;2023-04-07T07:44:58;101524.69;;;11.43;76.36
54248;BME280;40161;39.768;2.722;2023-04-07T07:47:24;101534.56;;;11.60;75.80
54248;BME280;40161;39.768;2.722;2023-04-07T07:49:50;101514.06;;;11.57;74.67
54248;BME280;40161;39.768;2.722;2023-04-07T07:52:16;101516.53;;;11.62;73.39
54248;BME280;40161;39.768;2.722;2023-04-07T07:54:42;101534.94;;;11.90;71.59
54248;BME280;40161;39.768;2.722;2023-04-07T07:57:07;101548.22;;;12.04;71.20
54248;BME280;40161;39.768;2.722;2023-04-07T07:59:33;101532.81;;;12.15;70.68
54248;BME280;40161;39.768;2.722;2023-04-07T08:01:59;101504.94;;;12.01;68.52
54248;BME280;40161;39.768;2.722;2023-04-07T08:04:24;101520.34;;;12.21;67.27
54248;BME280;40161;39.768;2.722;2023-04-07T08:06:50;101539.66;;;12.41;66.00
54248;BME280;40161;39.768;2.722;2023-04-07T08:09:17;101525.13;;;12.40;62.63
54248;BME280;40161;39.768;2.722;2023-04-07T08:11:43;101518.25;;;12.50;61.67
54248;BME280;40161;39.768;2.722;2023-04-07T08:14:08;101531.16;;;12.65;60.70
54248;BME280;40161;39.768;2.722;2023-04-07T08:16:34;101511.47;;;12.63;58.32
54248;BME280;40161;39.768;2.722;2023-04-07T08:19:00;101494.66;;;12.68;58.06
54248;BME280;40161;39.768;2.722;2023-04-07T08:21:25;101500.44;;;12.82;57.92
54248;BME280;40161;39.768;2.722;2023-04-07T08:23:53;101506.97;;;12.94;53.79
54248;BME280;40161;39.768;2.722;2023-04-07T08:26:19;101466.97;;;12.80;54.36
54248;BME280;40161;39.768;2.722;2023-04-07T08:28:45;101528.88;;;13.25;55.53
54248;BME280;40161;39.768;2.722;2023-04-07T08:31:10;101511.09;;;13.23;55.17
54248;BME280;40161;39.768;2.722;2023-04-07T08:33:36;101527.19;;;13.40;54.34
54248;BME280;40161;39.768;2.722;2023-04-07T08:36:01;101534.13;;;13.53;54.73
54248;BME280;40161;39.768;2.722;2023-04-07T08:38:27;101523.72;;;13.66;52.67
54248;BME280;40161;39.768;2.722;2023-04-07T08:40:59;101531.81;;;13.78;50.91
54248;BME280;40161;39.768;2.722;2023-04-07T08:43:25;101529.88;;;13.83;48.15
54248;BME280;40161;39.768;2.722;2023-04-07T08:45:55;101528.28;;;14.05;45.22
54248;BME280;40161;39.768;2.722;2023-04-07T08:48:22;101524.75;;;14.04;46.22
54248;BME280;40161;39.768;2.722;2023-04-07T08:50:52;101522.56;;;14.17;44.96
54248;BME280;40161;39.768;2.722;2023-04-07T08:53:23;101498.03;;;14.12;45.25
54248;BME280;40161;39.768;2.722;2023-04-07T08:55:54;101524.38;;;14.32;45.07
54248;BME280;40161;39.768;2.722;2023-04-07T08:58:22;101521.28;;;14.37;42.06
54248;BME280;40161;39.768;2.722;2023-04-07T09:00:48;101506.38;;;14.42;41.61
54248;BME280;40161;39.768;2.722;2023-04-07T09:03:15;101510.03;;;14.49;39.21
54248;BME280;40161;39.768;2.722;2023-04-07T09:05:45;101524.41;;;14.62;40.29
54248;BME280;40161;39.768;2.722;2023-04-07T09:08:11;101525.28;;;14.66;40.63
54248;BME280;40161;39.768;2.722;2023-04-07T09:10:37;101495.59;;;14.60;38.57
54248;BME280;40161;39.768;2.722;2023-04-07T09:13:02;101512.88;;;14.83;38.55
54248;BME280;40161;39.768;2.722;2023-04-07T09:15:31;101500.59;;;14.81;37.56
54248;BME280;40161;39.768;2.722;2023-04-07T09:17:57;101508.34;;;15.02;37.89
54248;BME280;40161;39.768;2.722;2023-04-07T09:20:23;101516.72;;;15.09;36.78
54248;BME280;40161;39.768;2.722;2023-04-07T09:22:50;101484.69;;;15.04;35.70
54248;BME280;40161;39.768;2.722;2023-04-07T09:25:22;101516.22;;;15.37;34.81
54248;BME280;40161;39.768;2.722;2023-04-07T09:28:04;101513.16;;;15.46;34.10
54248;BME280;40161;39.768;2.722;2023-04-07T09:30:32;101501.41;;;15.56;33.51
54248;BME280;40161;39.768;2.722;2023-04-07T09:33:00;101511.03;;;15.69;32.05
54248;BME280;40161;39.768;2.722;2023-04-07T09:35:26;101483.66;;;15.60;33.32
54248;BME280;40161;39.768;2.722;2023-04-07T09:38:03;101509.94;;;15.81;33.94
54248;BME280;40161;39.768;2.722;2023-04-07T09:40:29;101493.63;;;15.72;33.53
54248;BME280;40161;39.768;2.722;2023-04-07T09:42:55;101508.75;;;15.82;33.79
54248;BME280;40161;39.768;2.722;2023-04-07T09:45:27;101503.84;;;16.12;39.88
54248;BME280;40161;39.768;2.722;2023-04-07T09:47:53;101512.63;;;16.25;39.24
54248;BME280;40161;39.768;2.722;2023-04-07T09:52:59;101488.59;;;16.40;44.10
54248;BME280;40161;39.768;2.722;2023-04-07T09:55:27;101508.50;;;16.64;43.98
54248;BME280;40161;39.768;2.722;2023-04-07T09:57:53;101518.41;;;16.72;45.77
54248;BME280;40161;39.768;2.722;2023-04-07T10:00:23;101509.72;;;16.70;46.39
54248;BME280;40161;39.768;2.722;2023-04-07T10:02:49;101514.53;;;16.76;46.34
54248;BME280;40161;39.768;2.722;2023-04-07T10:05:16;101513.34;;;16.77;46.02
54248;BME280;40161;39.768;2.722;2023-04-07T10:07:42;101497.84;;;16.73;45.31
54248;BME280;40161;39.768;2.722;2023-04-07T10:10:08;101496.75;;;16.88;46.29
54248;BME280;40161;39.768;2.722;2023-04-07T10:12:36;101508.69;;;17.06;45.98
54248;BME280;40161;39.768;2.722;2023-04-07T10:15:02;101498.41;;;17.03;45.71
54248;BME280;40161;39.768;2.722;2023-04-07T10:17:30;101500.34;;;17.03;46.22
54248;BME280;40161;39.768;2.722;2023-04-07T10:19:57;101504.75;;;17.15;47.03
54248;BME280;40161;39.768;2.722;2023-04-07T10:22:27;101492.09;;;17.14;47.65
54248;BME280;40161;39.768;2.722;2023-04-07T10:25:28;101500.44;;;17.21;48.19
54248;BME280;40161;39.768;2.722;2023-04-07T10:27:50;101482.16;;;17.13;48.54
54248;BME280;40161;39.768;2.722;2023-04-07T10:30:34;101509.16;;;17.33;49.91
54248;BME280;40161;39.768;2.722;2023-04-07T10:33:02;101490.91;;;17.29;50.29
54248;BME280;40161;39.768;2.722;2023-04-07T10:36:03;101505.22;;;17.38;51.15
54248;BME280;40161;39.768;2.722;2023-04-07T10:38:30;101500.03;;;17.40;51.28
54248;BME280;40161;39.768;2.722;2023-04-07T10:40:56;101499.66;;;17.38;53.00
54248;BME280;40161;39.768;2.722;2023-04-07T10:43:48;101506.38;;;17.37;52.70
54248;BME280;40161;39.768;2.722;2023-04-07T10:46:13;101500.81;;;17.33;53.95
54248;BME280;40161;39.768;2.722;2023-04-07T10:48:39;101488.56;;;17.27;56.02
54248;BME280;40161;39.768;2.722;2023-04-07T10:53:32;101493.69;;;17.25;58.38
54248;BME280;40161;39.768;2.722;2023-04-07T10:55:59;101494.47;;;17.22;60.06
54248;BME280;40161;39.768;2.722;2023-04-07T10:58:29;101483.38;;;17.15;60.00
54248;BME280;40161;39.768;2.722;2023-04-07T11:03:37;101505.97;;;17.24;59.80
54248;BME280;40161;39.768;2.722;2023-04-07T11:06:03;101501.22;;;17.25;60.02
54248;BME280;40161;39.768;2.722;2023-04-07T11:08:37;101497.28;;;17.37;60.36
54248;BME280;40161;39.768;2.722;2023-04-07T11:11:08;101491.72;;;17.33;60.92
54248;BME280;40161;39.768;2.722;2023-04-07T11:13:45;101488.16;;;17.29;61.32
54248;BME280;40161;39.768;2.722;2023-04-07T11:16:12;101500.84;;;17.44;61.09
54248;BME280;40161;39.768;2.722;2023-04-07T11:18:40;101467.94;;;17.25;61.91
54248;BME280;40161;39.768;2.722;2023-04-07T11:21:06;101486.59;;;17.42;60.44
54248;BME280;40161;39.768;2.722;2023-04-07T11:23:42;101486.97;;;17.48;59.25
54248;BME280;40161;39.768;2.722;2023-04-07T11:26:10;101471.94;;;17.45;59.96
54248;BME280;40161;39.768;2.722;2023-04-07T11:28:49;101479.06;;;17.57;59.85
54248;BME280;40161;39.768;2.722;2023-04-07T11:31:26;101489.78;;;17.55;59.92
54248;BME280;40161;39.768;2.722;2023-04-07T11:34:03;101485.38;;;17.50;59.57
54248;BME280;40161;39.768;2.722;2023-04-07T11:36:32;101487.78;;;17.52;59.80
54248;BME280;40161;39.768;2.722;2023-04-07T11:39:03;101474.69;;;17.45;60.15
54248;BME280;40161;39.768;2.722;2023-04-07T11:41:30;101486.59;;;17.56;59.96
54248;BME280;40161;39.768;2.722;2023-04-07T11:44:07;101454.44;;;17.34;59.20
54248;BME280;40161;39.768;2.722;2023-04-07T11:46:33;101476.69;;;17.59;59.95
54248;BME280;40161;39.768;2.722;2023-04-07T11:49:13;101469.94;;;17.64;60.15
54248;BME280;40161;39.768;2.722;2023-04-07T11:51:39;101459.25;;;17.59;60.32
54248;BME280;40161;39.768;2.722;2023-04-07T11:54:05;101467.97;;;17.64;60.81
54248;BME280;40161;39.768;2.722;2023-04-07T11:56:41;101467.59;;;17.80;61.03
54248;BME280;40161;39.768;2.722;2023-04-07T11:59:07;101470.72;;;17.71;60.22
54248;BME280;40161;39.768;2.722;2023-04-07T12:01:39;101458.06;;;17.67;59.76
54248;BME280;40161;39.768;2.722;2023-04-07T12:04:05;101464.81;;;17.80;60.78
54248;BME280;40161;39.768;2.722;2023-04-07T12:06:35;101456.47;;;17.66;59.97
54248;BME280;40161;39.768;2.722;2023-04-07T12:09:07;101444.97;;;17.60;58.83
54248;BME280;40161;39.768;2.722;2023-04-07T12:11:33;101459.25;;;17.62;59.16
54248;BME280;40161;39.768;2.722;2023-04-07T12:14:00;101433.88;;;17.56;58.74
54248;BME280;40161;39.768;2.722;2023-04-07T12:16:26;101454.91;;;17.79;57.61
54248;BME280;40161;39.768;2.722;2023-04-07T12:18:52;101449.72;;;17.88;56.66
54248;BME280;40161;39.768;2.722;2023-04-07T12:21:18;101454.91;;;17.93;57.35
54248;BME280;40161;39.768;2.722;2023-04-07T12:23:45;101448.91;;;17.98;56.56
54248;BME280;40161;39.768;2.722;2023-04-07T12:26:11;101447.34;;;18.05;56.46
54248;BME280;40161;39.768;2.722;2023-04-07T12:28:37;101438.22;;;18.00;55.85
54248;BME280;40161;39.768;2.722;2023-04-07T12:31:03;101434.25;;;18.01;55.32
54248;BME280;40161;39.768;2.722;2023-04-07T12:33:29;101430.25;;;18.10;55.76
54248;BME280;40161;39.768;2.722;2023-04-07T12:35:58;101427.47;;;18.10;55.42
54248;BME280;40161;39.768;2.722;2023-04-07T12:38:24;101417.97;;;18.07;55.26
54248;BME280;40161;39.768;2.722;2023-04-07T12:40:50;101435.00;;;18.13;55.05
54248;BME280;40161;39.768;2.722;2023-04-07T12:43:17;101412.38;;;18.21;54.72
54248;BME280;40161;39.768;2.722;2023-04-07T12:45:42;101415.16;;;18.21;54.86
54248;BME280;40161;39.768;2.722;2023-04-07T12:48:08;101416.31;;;18.27;54.86
54248;BME280;40161;39.768;2.722;2023-04-07T12:50:35;101413.16;;;18.25;53.84
54248;BME280;40161;39.768;2.722;2023-04-07T12:53:01;101399.63;;;18.35;52.97
54248;BME280;40161;39.768;2.722;2023-04-07T12:55:31;101400.41;;;18.35;52.34
54248;BME280;40161;39.768;2.722;2023-04-07T12:58:01;101365.53;;;18.20;51.91
54248;BME280;40161;39.768;2.722;2023-04-07T13:00:26;101398.41;;;18.39;51.81
54248;BME280;40161;39.768;2.722;2023-04-07T13:02:52;101396.44;;;18.36;51.61
54248;BME280;40161;39.768;2.722;2023-04-07T13:05:17;101387.31;;;18.32;50.92
54248;BME280;40161;39.768;2.722;2023-04-07T13:07:44;101384.94;;;18.34;50.20